sensor_id;sensor_type;location;lat;lon;timestamp;P1;durP1;ratioP1;P2;durP2;ratioP2
74259;SDS011;62630;55.874;37.516;2023-05-24T00:00:40;10.82;;;5.10;;
74259;SDS011;62630;55.874;37.516;2023-05-24T00:03:06;7.32;;;4.68;;
74259;SDS011;62630;55.874;37.516;2023-05-24T00:05:31;10.10;;;4.97;;
74259;SDS011;62630;55.874;37.516;2023-05-24T00:07:57;11.30;;;4.63;;
74259;SDS011;62630;55.874;37.516;2023-05-24T00:10:24;10.57;;;5.25;;
74259;SDS011;62630;55.874;37.516;2023-05-24T00:12:50;8.52;;;5.32;;
74259;SDS011;62630;55.874;37.516;2023-05-24T00:15:15;10.45;;;4.93;;
74259;SDS011;62630;55.874;37.516;2023-05-24T00:17:41;9.15;;;4.60;;
74259;SDS011;62630;55.874;37.516;2023-05-24T00:20:08;9.52;;;4.70;;
74259;SDS011;62630;55.874;37.516;2023-05-24T00:22:38;9.82;;;4.22;;
74259;SDS011;62630;55.874;37.516;2023-05-24T00:25:04;12.23;;;3.92;;
74259;SDS011;62630;55.874;37.516;2023-05-24T00:27:31;7.57;;;4.93;;
74259;SDS011;62630;55.874;37.516;2023-05-24T00:29:57;7.75;;;4.78;;
74259;SDS011;62630;55.874;37.516;2023-05-24T00:32:23;10.10;;;5.90;;
74259;SDS011;62630;55.874;37.516;2023-05-24T00:34:48;13.43;;;5.90;;
74259;SDS011;62630;55.874;37.516;2023-05-24T00:37:14;9.10;;;5.30;;
74259;SDS011;62630;55.874;37.516;2023-05-24T00:39:40;9.77;;;5.80;;
74259;SDS011;62630;55.874;37.516;2023-05-24T00:42:05;13.88;;;5.68;;
74259;SDS011;62630;55.874;37.516;2023-05-24T00:44:31;9.43;;;5.72;;
74259;SDS011;62630;55.874;37.516;2023-05-24T00:46:56;9.35;;;5.75;;
74259;SDS011;62630;55.874;37.516;2023-05-24T00:49:23;9.50;;;5.22;;
74259;SDS011;62630;55.874;37.516;2023-05-24T00:51:48;11.02;;;5.55;;
74259;SDS011;62630;55.874;37.516;2023-05-24T00:54:16;9.57;;;5.20;;
74259;SDS011;62630;55.874;37.516;2023-05-24T00:56:42;10.27;;;4.95;;
74259;SDS011;62630;55.874;37.516;2023-05-24T00:59:08;9.23;;;5.43;;
74259;SDS011;62630;55.874;37.516;2023-05-24T01:01:34;10.13;;;5.18;;
74259;SDS011;62630;55.874;37.516;2023-05-24T01:06:27;11.93;;;5.53;;
74259;SDS011;62630;55.874;37.516;2023-05-24T01:14:40;7.38;;;4.65;;
74259;SDS011;62630;55.874;37.516;2023-05-24T01:17:22;7.60;;;5.15;;
74259;SDS011;62630;55.874;37.516;2023-05-24T01:20:07;8.18;;;4.60;;
74259;SDS011;62630;55.874;37.516;2023-05-24T01:27:38;12.18;;;5.13;;
74259;SDS011;62630;55.874;37.516;2023-05-24T01:30:05;8.82;;;4.70;;
74259;SDS011;62630;55.874;37.516;2023-05-24T01:32:31;6.35;;;4.15;;
74259;SDS011;62630;55.874;37.516;2023-05-24T01:34:57;10.57;;;4.38;;
74259;SDS011;62630;55.874;37.516;2023-05-24T01:37:23;6.07;;;5.15;;
74259;SDS011;62630;55.874;37.516;2023-05-24T01:39:48;8.40;;;4.13;;
74259;SDS011;62630;55.874;37.516;2023-05-24T01:47:31;7.25;;;4.20;;
74259;SDS011;62630;55.874;37.516;2023-05-24T01:50:09;9.90;;;4.53;;
74259;SDS011;62630;55.874;37.516;2023-05-24T01:52:41;5.85;;;3.92;;
74259;SDS011;62630;55.874;37.516;2023-05-24T01:55:10;7.78;;;3.83;;
74259;SDS011;62630;55.874;37.516;2023-05-24T01:57:39;6.78;;;3.40;;
74259;SDS011;62630;55.874;37.516;2023-05-24T02:00:08;8.23;;;4.03;;
74259;SDS011;62630;55.874;37.516;2023-05-24T02:02:36;7.78;;;3.78;;
74259;SDS011;62630;55.874;37.516;2023-05-24T02:05:02;9.65;;;4.20;;
74259;SDS011;62630;55.874;37.516;2023-05-24T02:07:28;5.78;;;4.18;;
74259;SDS011;62630;55.874;37.516;2023-05-24T02:09:53;5.78;;;4.03;;
74259;SDS011;62630;55.874;37.516;2023-05-24T02:12:19;9.63;;;4.80;;
74259;SDS011;62630;55.874;37.516;2023-05-24T02:14:44;6.50;;;4.80;;
74259;SDS011;62630;55.874;37.516;2023-05-24T02:17:10;7.35;;;4.88;;
74259;SDS011;62630;55.874;37.516;2023-05-24T02:19:35;13.63;;;5.60;;
74259;SDS011;62630;55.874;37.516;2023-05-24T02:22:01;11.10;;;4.90;;
74259;SDS011;62630;55.874;37.516;2023-05-24T02:24:27;10.40;;;5.82;;
74259;SDS011;62630;55.874;37.516;2023-05-24T02:26:53;11.77;;;5.55;;
74259;SDS011;62630;55.874;37.516;2023-05-24T02:29:22;7.18;;;4.65;;
74259;SDS011;62630;55.874;37.516;2023-05-24T02:31:47;7.88;;;4.50;;
74259;SDS011;62630;55.874;37.516;2023-05-24T02:34:18;8.95;;;4.47;;
74259;SDS011;62630;55.874;37.516;2023-05-24T02:36:47;21.90;;;4.90;;
74259;SDS011;62630;55.874;37.516;2023-05-24T02:39:13;9.25;;;4.50;;
74259;SDS011;62630;55.874;37.516;2023-05-24T02:41:39;7.68;;;4.25;;
74259;SDS011;62630;55.874;37.516;2023-05-24T02:44:05;12.00;;;4.50;;
74259;SDS011;62630;55.874;37.516;2023-05-24T02:46:33;9.07;;;4.25;;
74259;SDS011;62630;55.874;37.516;2023-05-24T02:48:59;11.93;;;4.90;;
74259;SDS011;62630;55.874;37.516;2023-05-24T02:51:25;11.90;;;4.30;;
74259;SDS011;62630;55.874;37.516;2023-05-24T02:53:53;10.82;;;4.40;;
74259;SDS011;62630;55.874;37.516;2023-05-24T02:56:19;6.63;;;3.60;;
74259;SDS011;62630;55.874;37.516;2023-05-24T02:58:47;6.72;;;4.22;;
74259;SDS011;62630;55.874;37.516;2023-05-24T03:01:15;7.68;;;4.28;;
74259;SDS011;62630;55.874;37.516;2023-05-24T03:03:41;5.68;;;3.70;;
74259;SDS011;62630;55.874;37.516;2023-05-24T03:06:06;12.60;;;3.80;;
74259;SDS011;62630;55.874;37.516;2023-05-24T03:08:35;7.45;;;4.25;;
74259;SDS011;62630;55.874;37.516;2023-05-24T03:11:03;10.05;;;4.50;;
74259;SDS011;62630;55.874;37.516;2023-05-24T03:13:29;7.00;;;4.13;;
74259;SDS011;62630;55.874;37.516;2023-05-24T03:15:57;10.73;;;3.95;;
74259;SDS011;62630;55.874;37.516;2023-05-24T03:18:22;7.32;;;4.40;;
74259;SDS011;62630;55.874;37.516;2023-05-24T03:20:48;11.60;;;5.00;;
74259;SDS011;62630;55.874;37.516;2023-05-24T03:23:17;6.88;;;3.85;;
74259;SDS011;62630;55.874;37.516;2023-05-24T03:25:43;7.30;;;4.78;;
74259;SDS011;62630;55.874;37.516;2023-05-24T03:28:09;8.30;;;4.78;;
74259;SDS011;62630;55.874;37.516;2023-05-24T03:30:35;8.55;;;4.65;;
74259;SDS011;62630;55.874;37.516;2023-05-24T03:33:00;9.60;;;4.97;;
74259;SDS011;62630;55.874;37.516;2023-05-24T03:35:26;10.63;;;4.38;;
74259;SDS011;62630;55.874;37.516;2023-05-24T03:37:52;16.65;;;5.38;;
74259;SDS011;62630;55.874;37.516;2023-05-24T03:42:45;15.25;;;5.22;;
74259;SDS011;62630;55.874;37.516;2023-05-24T03:45:10;9.55;;;5.53;;
74259;SDS011;62630;55.874;37.516;2023-05-24T03:47:36;9.85;;;4.50;;
74259;SDS011;62630;55.874;37.516;2023-05-24T03:50:02;11.52;;;4.80;;
74259;SDS011;62630;55.874;37.516;2023-05-24T03:52:27;6.30;;;4.07;;
74259;SDS011;62630;55.874;37.516;2023-05-24T03:54:53;7.80;;;4.30;;
74259;SDS011;62630;55.874;37.516;2023-05-24T03:57:19;8.13;;;4.95;;
74259;SDS011;62630;55.874;37.516;2023-05-24T03:59:44;15.05;;;4.70;;
74259;SDS011;62630;55.874;37.516;2023-05-24T04:02:10;7.22;;;4.15;;
74259;SDS011;62630;55.874;37.516;2023-05-24T04:04:35;11.35;;;4.70;;
74259;SDS011;62630;55.874;37.516;2023-05-24T04:07:01;9.30;;;4.75;;
74259;SDS011;62630;55.874;37.516;2023-05-24T04:09:27;7.03;;;4.20;;
74259;SDS011;62630;55.874;37.516;2023-05-24T04:11:53;8.25;;;4.30;;
74259;SDS011;62630;55.874;37.516;2023-05-24T04:14:18;9.45;;;4.82;;
74259;SDS011;62630;55.874;37.516;2023-05-24T04:16:44;9.75;;;5.35;;
74259;SDS011;62630;55.874;37.516;2023-05-24T04:19:10;10.82;;;5.22;;
74259;SDS011;62630;55.874;37.516;2023-05-24T04:21:36;10.90;;;5.25;;
74259;SDS011;62630;55.874;37.516;2023-05-24T04:24:03;9.50;;;4.40;;
74259;SDS011;62630;55.874;37.516;2023-05-24T04:26:30;14.68;;;4.43;;
74259;SDS011;62630;55.874;37.516;2023-05-24T04:28:56;10.48;;;4.95;;
74259;SDS011;62630;55.874;37.516;2023-05-24T04:31:22;6.07;;;4.05;;
74259;SDS011;62630;55.874;37.516;2023-05-24T04:33:47;7.95;;;3.92;;
74259;SDS011;62630;55.874;37.516;2023-05-24T04:36:14;11.60;;;5.43;;
74259;SDS011;62630;55.874;37.516;2023-05-24T04:38:40;6.88;;;4.30;;
74259;SDS011;62630;55.874;37.516;2023-05-24T04:41:06;8.88;;;4.38;;
74259;SDS011;62630;55.874;37.516;2023-05-24T04:43:32;7.28;;;4.03;;
74259;SDS011;62630;55.874;37.516;2023-05-24T04:46:01;10.02;;;3.78;;
74259;SDS011;62630;55.874;37.516;2023-05-24T04:48:27;7.57;;;3.80;;
74259;SDS011;62630;55.874;37.516;2023-05-24T04:50:54;8.52;;;4.20;;
74259;SDS011;62630;55.874;37.516;2023-05-24T04:53:21;9.00;;;4.43;;
74259;SDS011;62630;55.874;37.516;2023-05-24T04:55:47;8.88;;;4.40;;
74259;SDS011;62630;55.874;37.516;2023-05-24T04:58:13;10.00;;;4.00;;
74259;SDS011;62630;55.874;37.516;2023-05-24T05:00:40;9.80;;;4.55;;
74259;SDS011;62630;55.874;37.516;2023-05-24T05:03:06;7.35;;;4.07;;
74259;SDS011;62630;55.874;37.516;2023-05-24T05:05:32;6.07;;;4.15;;
74259;SDS011;62630;55.874;37.516;2023-05-24T05:07:58;12.93;;;4.25;;
74259;SDS011;62630;55.874;37.516;2023-05-24T05:10:26;6.72;;;3.80;;
74259;SDS011;62630;55.874;37.516;2023-05-24T05:12:52;7.43;;;4.13;;
74259;SDS011;62630;55.874;37.516;2023-05-24T05:15:19;14.07;;;4.13;;
74259;SDS011;62630;55.874;37.516;2023-05-24T05:17:48;12.88;;;4.55;;
74259;SDS011;62630;55.874;37.516;2023-05-24T05:20:15;9.40;;;3.55;;
74259;SDS011;62630;55.874;37.516;2023-05-24T05:22:46;11.50;;;3.60;;
74259;SDS011;62630;55.874;37.516;2023-05-24T05:27:40;10.48;;;4.63;;
74259;SDS011;62630;55.874;37.516;2023-05-24T05:30:06;13.40;;;4.18;;
74259;SDS011;62630;55.874;37.516;2023-05-24T05:32:32;9.15;;;4.07;;
74259;SDS011;62630;55.874;37.516;2023-05-24T05:34:58;16.33;;;4.45;;
74259;SDS011;62630;55.874;37.516;2023-05-24T05:37:24;7.85;;;4.38;;
74259;SDS011;62630;55.874;37.516;2023-05-24T05:39:49;7.07;;;4.22;;
74259;SDS011;62630;55.874;37.516;2023-05-24T05:42:15;13.38;;;4.35;;
74259;SDS011;62630;55.874;37.516;2023-05-24T05:44:40;8.90;;;4.35;;
74259;SDS011;62630;55.874;37.516;2023-05-24T05:47:06;11.95;;;4.07;;
74259;SDS011;62630;55.874;37.516;2023-05-24T05:49:33;10.57;;;3.83;;
74259;SDS011;62630;55.874;37.516;2023-05-24T05:52:01;8.45;;;4.07;;
74259;SDS011;62630;55.874;37.516;2023-05-24T05:54:27;6.15;;;3.63;;
74259;SDS011;62630;55.874;37.516;2023-05-24T05:56:53;10.18;;;3.97;;
74259;SDS011;62630;55.874;37.516;2023-05-24T05:59:18;11.02;;;4.13;;
74259;SDS011;62630;55.874;37.516;2023-05-24T06:01:44;11.80;;;4.20;;
74259;SDS011;62630;55.874;37.516;2023-05-24T06:04:11;7.97;;;3.78;;
74259;SDS011;62630;55.874;37.516;2023-05-24T06:06:37;10.20;;;4.38;;
74259;SDS011;62630;55.874;37.516;2023-05-24T06:09:02;8.20;;;3.78;;
74259;SDS011;62630;55.874;37.516;2023-05-24T06:11:28;9.05;;;3.72;;
74259;SDS011;62630;55.874;37.516;2023-05-24T06:13:53;8.13;;;3.83;;
74259;SDS011;62630;55.874;37.516;2023-05-24T06:16:19;6.32;;;4.07;;
74259;SDS011;62630;55.874;37.516;2023-05-24T06:18:50;8.05;;;4.00;;
74259;SDS011;62630;55.874;37.516;2023-05-24T06:21:15;7.57;;;4.00;;
74259;SDS011;62630;55.874;37.516;2023-05-24T06:23:41;10.02;;;4.53;;
74259;SDS011;62630;55.874;37.516;2023-05-24T06:26:07;9.75;;;3.95;;
74259;SDS011;62630;55.874;37.516;2023-05-24T06:28:36;7.57;;;3.60;;
74259;SDS011;62630;55.874;37.516;2023-05-24T06:31:02;6.30;;;3.97;;
74259;SDS011;62630;55.874;37.516;2023-05-24T06:33:31;7.57;;;3.95;;
74259;SDS011;62630;55.874;37.516;2023-05-24T06:35:56;5.78;;;3.88;;
74259;SDS011;62630;55.874;37.516;2023-05-24T06:38:22;8.80;;;4.50;;
74259;SDS011;62630;55.874;37.516;2023-05-24T06:40:48;8.18;;;3.83;;
74259;SDS011;62630;55.874;37.516;2023-05-24T06:43:14;8.95;;;4.68;;
74259;SDS011;62630;55.874;37.516;2023-05-24T06:45:40;13.32;;;4.50;;
74259;SDS011;62630;55.874;37.516;2023-05-24T06:48:06;13.35;;;4.10;;
74259;SDS011;62630;55.874;37.516;2023-05-24T06:50:31;7.68;;;3.97;;
74259;SDS011;62630;55.874;37.516;2023-05-24T06:52:57;12.95;;;4.80;;
74259;SDS011;62630;55.874;37.516;2023-05-24T06:55:22;11.85;;;4.60;;
74259;SDS011;62630;55.874;37.516;2023-05-24T06:57:48;16.90;;;5.38;;
74259;SDS011;62630;55.874;37.516;2023-05-24T07:00:14;13.70;;;3.95;;
74259;SDS011;62630;55.874;37.516;2023-05-24T07:02:40;9.25;;;3.90;;
74259;SDS011;62630;55.874;37.516;2023-05-24T07:05:08;9.70;;;4.13;;
74259;SDS011;62630;55.874;37.516;2023-05-24T07:07:37;10.30;;;4.65;;
74259;SDS011;62630;55.874;37.516;2023-05-24T07:10:04;12.07;;;4.72;;
74259;SDS011;62630;55.874;37.516;2023-05-24T07:12:32;8.93;;;4.25;;
74259;SDS011;62630;55.874;37.516;2023-05-24T07:14:58;7.97;;;4.63;;
74259;SDS011;62630;55.874;37.516;2023-05-24T07:17:24;9.98;;;4.45;;
74259;SDS011;62630;55.874;37.516;2023-05-24T07:19:50;10.88;;;5.30;;
74259;SDS011;62630;55.874;37.516;2023-05-24T07:22:15;10.30;;;4.72;;
74259;SDS011;62630;55.874;37.516;2023-05-24T07:24:41;9.18;;;4.45;;
74259;SDS011;62630;55.874;37.516;2023-05-24T07:27:06;8.35;;;3.90;;
74259;SDS011;62630;55.874;37.516;2023-05-24T07:29:33;6.70;;;4.30;;
74259;SDS011;62630;55.874;37.516;2023-05-24T07:31:59;6.78;;;3.78;;
74259;SDS011;62630;55.874;37.516;2023-05-24T07:34:25;13.95;;;5.05;;
74259;SDS011;62630;55.874;37.516;2023-05-24T07:36:54;8.68;;;4.35;;
74259;SDS011;62630;55.874;37.516;2023-05-24T07:39:20;6.47;;;3.85;;
74259;SDS011;62630;55.874;37.516;2023-05-24T07:41:46;16.85;;;4.60;;
74259;SDS011;62630;55.874;37.516;2023-05-24T07:44:12;8.07;;;4.05;;
74259;SDS011;62630;55.874;37.516;2023-05-24T07:46:37;10.48;;;3.90;;
74259;SDS011;62630;55.874;37.516;2023-05-24T07:49:03;9.43;;;3.95;;
74259;SDS011;62630;55.874;37.516;2023-05-24T07:51:28;14.75;;;4.00;;
74259;SDS011;62630;55.874;37.516;2023-05-24T07:53:54;11.60;;;5.32;;
74259;SDS011;62630;55.874;37.516;2023-05-24T07:56:20;10.70;;;3.88;;
74259;SDS011;62630;55.874;37.516;2023-05-24T07:58:45;13.02;;;4.03;;
74259;SDS011;62630;55.874;37.516;2023-05-24T08:01:13;8.82;;;4.43;;
74259;SDS011;62630;55.874;37.516;2023-05-24T08:03:45;12.98;;;4.50;;
74259;SDS011;62630;55.874;37.516;2023-05-24T08:06:11;11.20;;;4.40;;
74259;SDS011;62630;55.874;37.516;2023-05-24T08:08:37;8.70;;;4.50;;
74259;SDS011;62630;55.874;37.516;2023-05-24T08:11:03;12.18;;;3.92;;
74259;SDS011;62630;55.874;37.516;2023-05-24T08:13:31;10.20;;;4.93;;
74259;SDS011;62630;55.874;37.516;2023-05-24T08:15:59;7.80;;;4.90;;
74259;SDS011;62630;55.874;37.516;2023-05-24T08:21:34;7.75;;;4.53;;
74259;SDS011;62630;55.874;37.516;2023-05-24T08:23:59;9.77;;;5.35;;
74259;SDS011;62630;55.874;37.516;2023-05-24T08:26:28;10.32;;;5.28;;
74259;SDS011;62630;55.874;37.516;2023-05-24T08:28:56;11.43;;;4.82;;
74259;SDS011;62630;55.874;37.516;2023-05-24T08:31:22;11.60;;;5.88;;
74259;SDS011;62630;55.874;37.516;2023-05-24T08:33:48;15.15;;;6.10;;
74259;SDS011;62630;55.874;37.516;2023-05-24T08:36:15;15.98;;;6.78;;
74259;SDS011;62630;55.874;37.516;2023-05-24T08:41:09;22.88;;;5.55;;
74259;SDS011;62630;55.874;37.516;2023-05-24T08:43:36;9.80;;;5.18;;
74259;SDS011;62630;55.874;37.516;2023-05-24T08:48:28;10.10;;;3.83;;
74259;SDS011;62630;55.874;37.516;2023-05-24T08:50:54;12.75;;;4.60;;
74259;SDS011;62630;55.874;37.516;2023-05-24T08:53:21;12.50;;;3.95;;
74259;SDS011;62630;55.874;37.516;2023-05-24T08:55:48;13.95;;;4.68;;
74259;SDS011;62630;55.874;37.516;2023-05-24T08:58:19;12.85;;;4.60;;
74259;SDS011;62630;55.874;37.516;2023-05-24T09:00:44;7.82;;;4.50;;
74259;SDS011;62630;55.874;37.516;2023-05-24T09:03:11;11.65;;;4.85;;
74259;SDS011;62630;55.874;37.516;2023-05-24T09:05:37;8.77;;;4.80;;
74259;SDS011;62630;55.874;37.516;2023-05-24T09:08:05;16.55;;;5.25;;
74259;SDS011;62630;55.874;37.516;2023-05-24T09:12:58;12.27;;;5.28;;
74259;SDS011;62630;55.874;37.516;2023-05-24T09:15:26;22.70;;;5.75;;
74259;SDS011;62630;55.874;37.516;2023-05-24T09:17:53;12.60;;;5.95;;
74259;SDS011;62630;55.874;37.516;2023-05-24T09:20:19;14.27;;;5.40;;
74259;SDS011;62630;55.874;37.516;2023-05-24T09:22:49;14.10;;;5.68;;
74259;SDS011;62630;55.874;37.516;2023-05-24T09:25:18;13.70;;;4.90;;
74259;SDS011;62630;55.874;37.516;2023-05-24T09:27:51;11.00;;;5.18;;
74259;SDS011;62630;55.874;37.516;2023-05-24T09:30:18;10.23;;;5.00;;
74259;SDS011;62630;55.874;37.516;2023-05-24T09:32:56;10.18;;;4.80;;
74259;SDS011;62630;55.874;37.516;2023-05-24T09:35:23;13.93;;;4.97;;
74259;SDS011;62630;55.874;37.516;2023-05-24T09:37:54;13.07;;;5.00;;
74259;SDS011;62630;55.874;37.516;2023-05-24T09:40:21;15.70;;;5.05;;
74259;SDS011;62630;55.874;37.516;2023-05-24T09:42:47;12.27;;;5.35;;
74259;SDS011;62630;55.874;37.516;2023-05-24T09:45:19;17.10;;;6.28;;
74259;SDS011;62630;55.874;37.516;2023-05-24T09:47:45;11.77;;;5.85;;
74259;SDS011;62630;55.874;37.516;2023-05-24T09:50:11;15.70;;;5.15;;
74259;SDS011;62630;55.874;37.516;2023-05-24T09:52:39;13.45;;;6.15;;
74259;SDS011;62630;55.874;37.516;2023-05-24T09:57:51;16.75;;;5.80;;
74259;SDS011;62630;55.874;37.516;2023-05-24T10:00:30;15.60;;;4.05;;
74259;SDS011;62630;55.874;37.516;2023-05-24T10:03:02;13.07;;;5.22;;
74259;SDS011;62630;55.874;37.516;2023-05-24T10:05:31;21.83;;;5.57;;
74259;SDS011;62630;55.874;37.516;2023-05-24T10:07:58;16.55;;;5.57;;
74259;SDS011;62630;55.874;37.516;2023-05-24T10:10:27;13.80;;;5.20;;
74259;SDS011;62630;55.874;37.516;2023-05-24T10:12:55;10.77;;;4.97;;
74259;SDS011;62630;55.874;37.516;2023-05-24T10:15:21;13.68;;;4.68;;
74259;SDS011;62630;55.874;37.516;2023-05-24T10:17:47;9.65;;;4.10;;
74259;SDS011;62630;55.874;37.516;2023-05-24T10:20:12;15.52;;;6.82;;
74259;SDS011;62630;55.874;37.516;2023-05-24T10:22:39;10.98;;;5.80;;
74259;SDS011;62630;55.874;37.516;2023-05-24T10:25:09;8.65;;;4.28;;
74259;SDS011;62630;55.874;37.516;2023-05-24T10:27:40;11.38;;;4.75;;
74259;SDS011;62630;55.874;37.516;2023-05-24T10:32:46;14.55;;;4.25;;
74259;SDS011;62630;55.874;37.516;2023-05-24T10:35:13;13.25;;;4.28;;
74259;SDS011;62630;55.874;37.516;2023-05-24T10:37:40;6.93;;;3.60;;
74259;SDS011;62630;55.874;37.516;2023-05-24T10:40:15;8.68;;;3.30;;
74259;SDS011;62630;55.874;37.516;2023-05-24T10:42:44;12.20;;;4.28;;
74259;SDS011;62630;55.874;37.516;2023-05-24T10:47:49;7.32;;;4.53;;
74259;SDS011;62630;55.874;37.516;2023-05-24T10:50:15;9.30;;;4.70;;
74259;SDS011;62630;55.874;37.516;2023-05-24T10:52:42;9.63;;;4.35;;
74259;SDS011;62630;55.874;37.516;2023-05-24T10:55:08;12.45;;;4.13;;
74259;SDS011;62630;55.874;37.516;2023-05-24T10:57:35;6.45;;;4.20;;
74259;SDS011;62630;55.874;37.516;2023-05-24T11:02:49;12.40;;;5.38;;
74259;SDS011;62630;55.874;37.516;2023-05-24T11:05:16;8.88;;;5.38;;
74259;SDS011;62630;55.874;37.516;2023-05-24T11:07:42;16.33;;;4.88;;
74259;SDS011;62630;55.874;37.516;2023-05-24T11:10:12;12.43;;;4.60;;
74259;SDS011;62630;55.874;37.516;2023-05-24T11:12:39;9.20;;;4.53;;
74259;SDS011;62630;55.874;37.516;2023-05-24T11:15:07;10.23;;;4.07;;
74259;SDS011;62630;55.874;37.516;2023-05-24T11:18:11;8.82;;;4.05;;
74259;SDS011;62630;55.874;37.516;2023-05-24T11:20:33;7.82;;;4.10;;
74259;SDS011;62630;55.874;37.516;2023-05-24T11:23:02;8.23;;;3.90;;
74259;SDS011;62630;55.874;37.516;2023-05-24T11:25:29;7.80;;;3.80;;
74259;SDS011;62630;55.874;37.516;2023-05-24T11:27:57;12.55;;;4.45;;
74259;SDS011;62630;55.874;37.516;2023-05-24T11:30:23;12.27;;;4.65;;
74259;SDS011;62630;55.874;37.516;2023-05-24T11:32:49;9.43;;;3.92;;
74259;SDS011;62630;55.874;37.516;2023-05-24T11:35:14;9.50;;;4.35;;
74259;SDS011;62630;55.874;37.516;2023-05-24T11:37:42;9.38;;;4.22;;
74259;SDS011;62630;55.874;37.516;2023-05-24T11:40:09;12.75;;;4.38;;
74259;SDS011;62630;55.874;37.516;2023-05-24T11:42:36;13.07;;;4.43;;
74259;SDS011;62630;55.874;37.516;2023-05-24T11:45:03;6.55;;;4.00;;
74259;SDS011;62630;55.874;37.516;2023-05-24T11:47:38;15.50;;;4.05;;
74259;SDS011;62630;55.874;37.516;2023-05-24T11:50:04;7.57;;;3.97;;
74259;SDS011;62630;55.874;37.516;2023-05-24T11:52:31;12.90;;;3.95;;
74259;SDS011;62630;55.874;37.516;2023-05-24T11:54:57;10.52;;;4.30;;
74259;SDS011;62630;55.874;37.516;2023-05-24T11:57:29;13.77;;;3.83;;
74259;SDS011;62630;55.874;37.516;2023-05-24T12:00:01;11.50;;;4.10;;
74259;SDS011;62630;55.874;37.516;2023-05-24T12:02:28;9.63;;;3.78;;
74259;SDS011;62630;55.874;37.516;2023-05-24T12:04:54;10.07;;;3.35;;
74259;SDS011;62630;55.874;37.516;2023-05-24T12:07:19;8.75;;;3.45;;
74259;SDS011;62630;55.874;37.516;2023-05-24T12:09:47;8.73;;;3.55;;
74259;SDS011;62630;55.874;37.516;2023-05-24T12:12:14;6.35;;;3.92;;
74259;SDS011;62630;55.874;37.516;2023-05-24T12:14:40;10.35;;;3.60;;
74259;SDS011;62630;55.874;37.516;2023-05-24T12:17:05;8.80;;;3.72;;
74259;SDS011;62630;55.874;37.516;2023-05-24T12:19:40;12.38;;;3.97;;
74259;SDS011;62630;55.874;37.516;2023-05-24T12:22:07;11.45;;;4.05;;
74259;SDS011;62630;55.874;37.516;2023-05-24T12:24:33;14.50;;;3.85;;
74259;SDS011;62630;55.874;37.516;2023-05-24T12:26:59;12.13;;;4.60;;
74259;SDS011;62630;55.874;37.516;2023-05-24T12:29:31;18.80;;;4.43;;
74259;SDS011;62630;55.874;37.516;2023-05-24T12:32:00;9.00;;;3.97;;
74259;SDS011;62630;55.874;37.516;2023-05-24T12:34:26;15.73;;;3.95;;
74259;SDS011;62630;55.874;37.516;2023-05-24T12:36:54;11.75;;;3.88;;
74259;SDS011;62630;55.874;37.516;2023-05-24T12:39:20;9.73;;;3.50;;
74259;SDS011;62630;55.874;37.516;2023-05-24T12:41:51;16.23;;;4.47;;
74259;SDS011;62630;55.874;37.516;2023-05-24T12:44:24;11.30;;;4.47;;
74259;SDS011;62630;55.874;37.516;2023-05-24T12:46:55;10.93;;;4.00;;
74259;SDS011;62630;55.874;37.516;2023-05-24T12:49:21;15.57;;;4.40;;
74259;SDS011;62630;55.874;37.516;2023-05-24T12:51:51;7.32;;;3.85;;
74259;SDS011;62630;55.874;37.516;2023-05-24T12:54:20;13.25;;;4.45;;
74259;SDS011;62630;55.874;37.516;2023-05-24T12:56:47;8.00;;;4.50;;
74259;SDS011;62630;55.874;37.516;2023-05-24T12:59:16;14.80;;;5.03;;
74259;SDS011;62630;55.874;37.516;2023-05-24T13:01:41;10.25;;;4.40;;
74259;SDS011;62630;55.874;37.516;2023-05-24T13:04:07;9.38;;;4.28;;
74259;SDS011;62630;55.874;37.516;2023-05-24T13:06:35;13.57;;;4.07;;
74259;SDS011;62630;55.874;37.516;2023-05-24T13:09:01;12.45;;;4.60;;
74259;SDS011;62630;55.874;37.516;2023-05-24T13:11:27;12.95;;;5.07;;
74259;SDS011;62630;55.874;37.516;2023-05-24T13:13:55;13.45;;;4.13;;
74259;SDS011;62630;55.874;37.516;2023-05-24T13:16:21;12.57;;;4.28;;
74259;SDS011;62630;55.874;37.516;2023-05-24T13:18:47;13.00;;;4.22;;
74259;SDS011;62630;55.874;37.516;2023-05-24T13:21:13;11.98;;;4.32;;
74259;SDS011;62630;55.874;37.516;2023-05-24T13:23:39;12.70;;;4.40;;
74259;SDS011;62630;55.874;37.516;2023-05-24T13:26:07;13.48;;;4.32;;
74259;SDS011;62630;55.874;37.516;2023-05-24T13:28:32;9.35;;;4.55;;
74259;SDS011;62630;55.874;37.516;2023-05-24T13:30:58;11.18;;;4.43;;
74259;SDS011;62630;55.874;37.516;2023-05-24T13:33:24;10.80;;;4.30;;
74259;SDS011;62630;55.874;37.516;2023-05-24T13:35:51;13.32;;;4.53;;
74259;SDS011;62630;55.874;37.516;2023-05-24T13:38:19;14.43;;;4.97;;
74259;SDS011;62630;55.874;37.516;2023-05-24T13:40:46;10.13;;;4.55;;
74259;SDS011;62630;55.874;37.516;2023-05-24T13:43:12;17.00;;;4.80;;
74259;SDS011;62630;55.874;37.516;2023-05-24T13:45:38;16.15;;;5.95;;
74259;SDS011;62630;55.874;37.516;2023-05-24T13:48:04;12.18;;;5.50;;
74259;SDS011;62630;55.874;37.516;2023-05-24T13:50:32;8.48;;;4.57;;
74259;SDS011;62630;55.874;37.516;2023-05-24T13:52:59;12.60;;;4.93;;
74259;SDS011;62630;55.874;37.516;2023-05-24T13:55:26;12.02;;;5.15;;
74259;SDS011;62630;55.874;37.516;2023-05-24T13:57:53;15.00;;;5.93;;
74259;SDS011;62630;55.874;37.516;2023-05-24T14:00:20;9.23;;;5.47;;
74259;SDS011;62630;55.874;37.516;2023-05-24T14:02:46;9.93;;;4.80;;
74259;SDS011;62630;55.874;37.516;2023-05-24T14:05:12;9.27;;;5.32;;
74259;SDS011;62630;55.874;37.516;2023-05-24T14:07:38;13.38;;;5.05;;
74259;SDS011;62630;55.874;37.516;2023-05-24T14:10:03;12.45;;;5.43;;
74259;SDS011;62630;55.874;37.516;2023-05-24T14:12:29;12.80;;;5.20;;
74259;SDS011;62630;55.874;37.516;2023-05-24T14:14:55;13.27;;;4.57;;
74259;SDS011;62630;55.874;37.516;2023-05-24T14:17:21;9.90;;;4.63;;
74259;SDS011;62630;55.874;37.516;2023-05-24T14:19:47;15.25;;;5.20;;
74259;SDS011;62630;55.874;37.516;2023-05-24T14:22:13;14.57;;;5.03;;
74259;SDS011;62630;55.874;37.516;2023-05-24T14:24:38;9.70;;;5.03;;
74259;SDS011;62630;55.874;37.516;2023-05-24T14:27:04;10.10;;;4.38;;
74259;SDS011;62630;55.874;37.516;2023-05-24T14:29:31;15.80;;;5.53;;
74259;SDS011;62630;55.874;37.516;2023-05-24T14:31:57;16.02;;;5.85;;
74259;SDS011;62630;55.874;37.516;2023-05-24T14:34:22;15.77;;;5.15;;
74259;SDS011;62630;55.874;37.516;2023-05-24T14:36:48;11.05;;;5.43;;
74259;SDS011;62630;55.874;37.516;2023-05-24T14:39:13;19.23;;;5.43;;
74259;SDS011;62630;55.874;37.516;2023-05-24T14:41:40;8.57;;;5.00;;
74259;SDS011;62630;55.874;37.516;2023-05-24T14:44:06;15.73;;;5.28;;
74259;SDS011;62630;55.874;37.516;2023-05-24T14:46:32;12.80;;;5.25;;
74259;SDS011;62630;55.874;37.516;2023-05-24T14:48:57;11.00;;;4.47;;
74259;SDS011;62630;55.874;37.516;2023-05-24T14:51:24;11.25;;;4.40;;
74259;SDS011;62630;55.874;37.516;2023-05-24T14:53:50;14.02;;;5.70;;
74259;SDS011;62630;55.874;37.516;2023-05-24T14:56:15;14.00;;;4.80;;
74259;SDS011;62630;55.874;37.516;2023-05-24T14:58:41;10.35;;;4.38;;
74259;SDS011;62630;55.874;37.516;2023-05-24T15:01:06;10.00;;;3.95;;
74259;SDS011;62630;55.874;37.516;2023-05-24T15:03:35;9.10;;;4.15;;
74259;SDS011;62630;55.874;37.516;2023-05-24T15:06:01;6.40;;;3.47;;
74259;SDS011;62630;55.874;37.516;2023-05-24T15:08:28;9.20;;;3.42;;
74259;SDS011;62630;55.874;37.516;2023-05-24T15:10:54;13.90;;;4.40;;